MDAB

Details ICAO MDAB (EPS)
Name ARROYO BARRIL INTL
Region Dominican Republic
Timezone America/Santo_Domingo (UTC-4.0)
Plans Departing 20
Arriving 16
Stats Elevation 57 ft / 17 m (AMSL)
Location 19.198587° -69.429772°
Runways 1
Magnetic Variation 11.764° W
Sunrise 2018-06-18 10:01:35 UTC / 2018-06-18 06:01:35 Local
Sunset 2018-06-18 23:18:43 UTC / 2018-06-18 19:18:43 Local
Advertisement - Login to hide

Runways

ID Width Length Bearing (true) Bearing (mag) Surface Threshold Offset Overrun Length
11 82 ft / 25 m 3,823 ft / 1,165 m 99.55° 111.31° Asphalt 0 ft / 0 m 635 ft / 194 m
29 82 ft / 25 m 3,823 ft / 1,165 m 279.56° 291.32° Asphalt 0 ft / 0 m 340 ft / 104 m

Map

Weather


0- 5 10 15 20 25 30 35+ Temperature / ° C

Clouds and Precipitation
Forecast for 2018-06-18 12:00 UTC. Updated 5 hours ago

Ground ~20,000 ft ~40,000 ft Winds

METAR

MDAB 181300Z 00000KT 9999 FEW018 27/25 Q1018

TAF

Not found

Frequencies

Tower 118.45 MHz TWR
Warning: Do not use this data for real-world aviation or navigation. No guarantee of current accuracy is given.